Time;durP1;ratioP1;P1;durP2;ratioP2;P2;SDS_P1;SDS_P2;PMS_P1;PMS_P2;Temp;Humidity;BMP_temperature;BMP_pressure;BME280_temperature;BME280_humidity;BME280_pressure;Samples;Min_cycle;Max_cycle;Signal;HPM_P1;HPM_P2
2023/04/10 00:01:34;;;;;;;6.22;4.43;;;;;;;10.61;45.43;97715.41;4987229;28;20025;-80
2023/04/10 00:04:00;;;;;;;4.88;3.97;;;;;;;10.53;45.84;97707.94;4927950;28;20276;-80
2023/04/10 00:06:27;;;;;;;5.55;3.80;;;;;;;10.50;46.22;97718.81;4920168;28;20292;-80
2023/04/10 00:08:52;;;;;;;6.03;4.13;;;;;;;10.44;46.08;97715.31;4947184;28;20305;-80
2023/04/10 00:11:18;;;;;;;5.68;4.25;;;;;;;10.34;46.42;97715.09;4948384;28;20180;-80
2023/04/10 00:13:43;;;;;;;5.78;3.88;;;;;;;10.29;46.51;97712.38;4933161;28;20267;-80
2023/04/10 00:16:09;;;;;;;5.25;3.70;;;;;;;10.18;46.23;97706.16;4933760;28;20201;-79
2023/04/10 00:18:35;;;;;;;5.72;3.92;;;;;;;10.05;46.54;97681.16;5022081;23;20345;-79
2023/04/10 00:21:02;;;;;;;5.63;4.15;;;;;;;10.10;46.40;97672.69;4945739;28;20306;-80
2023/04/10 00:23:30;;;;;;;6.88;4.30;;;;;;;10.34;46.04;97704.69;4926838;28;20193;-79
2023/04/10 00:25:56;;;;;;;5.78;4.18;;;;;;;10.28;45.79;97695.97;4906246;28;20220;-80
2023/04/10 00:28:23;;;;;;;6.45;4.60;;;;;;;10.28;46.32;97698.56;4906997;28;20204;-79
2023/04/10 00:30:49;;;;;;;5.80;4.07;;;;;;;10.32;46.05;97703.34;4923272;28;20181;-80
2023/04/10 00:33:14;;;;;;;6.13;4.75;;;;;;;10.20;46.34;97698.91;4907021;28;20259;-80
2023/04/10 00:35:40;;;;;;;5.60;3.83;;;;;;;10.22;46.51;97706.50;4916392;28;20522;-80
2023/04/10 00:38:05;;;;;;;5.63;4.65;;;;;;;10.13;47.03;97713.88;4922127;28;20625;-80
2023/04/10 00:40:30;;;;;;;6.32;4.38;;;;;;;10.10;47.27;97709.91;4924650;28;20235;-80
2023/04/10 00:42:56;;;;;;;6.63;4.65;;;;;;;10.10;46.98;97720.31;4943419;28;20224;-80
2023/04/10 00:45:21;;;;;;;6.30;4.40;;;;;;;10.09;47.12;97723.94;4911629;28;20256;-79
2023/04/10 00:47:47;;;;;;;7.00;4.93;;;;;;;10.06;47.28;97724.38;4911534;28;20260;-80
2023/04/10 00:50:12;;;;;;;6.25;4.32;;;;;;;10.06;46.94;97721.78;4945594;28;20248;-80
2023/04/10 00:52:38;;;;;;;5.88;3.78;;;;;;;10.03;47.29;97718.84;4924093;28;20301;-80
2023/04/10 00:55:03;;;;;;;6.65;4.43;;;;;;;9.94;48.16;97715.81;4912815;28;20188;-79
2023/04/10 00:57:29;;;;;;;5.80;4.60;;;;;;;9.86;47.92;97723.94;4928190;28;20467;-80
2023/04/10 00:59:54;;;;;;;7.05;4.82;;;;;;;9.83;48.37;97721.78;4939465;28;20496;-80
2023/04/10 01:02:20;;;;;;;5.72;4.22;;;;;;;9.78;48.58;97714.66;4906727;28;20913;-80
2023/04/10 01:04:46;;;;;;;7.18;5.03;;;;;;;9.65;48.47;97707.09;4913702;28;20026;-80
2023/04/10 01:07:22;;;;;;;6.43;4.65;;;;;;;9.70;48.63;97710.59;4931654;28;20193;-80
2023/04/10 01:09:50;;;;;;;6.80;5.00;;;;;;;9.41;49.22;97707.03;4910226;28;20185;-79
2023/04/10 01:12:31;;;;;;;6.50;4.38;;;;;;;9.46;49.00;97704.56;4910442;28;20244;-80
2023/04/10 01:15:03;;;;;;;7.03;4.38;;;;;;;9.37;49.20;97703.28;4927195;28;20384;-80
2023/04/10 01:17:47;;;;;;;7.70;4.70;;;;;;;9.33;49.36;97710.75;4902473;28;20218;-80
2023/04/10 01:20:16;;;;;;;8.77;5.20;;;;;;;9.28;49.78;97694.25;4915767;28;20189;-80
2023/04/10 01:23:03;;;;;;;7.78;5.57;;;;;;;9.22;49.75;97689.94;4944494;28;20273;-80
2023/04/10 01:25:39;;;;;;;6.78;4.85;;;;;;;9.26;49.77;97685.88;4876241;28;20174;-80
2023/04/10 01:28:26;;;;;;;7.22;5.28;;;;;;;9.18;49.89;97685.19;4910039;28;20173;-79
2023/04/10 01:30:57;;;;;;;7.60;5.13;;;;;;;9.14;50.07;97680.66;4907845;28;20462;-80
2023/04/10 01:33:45;;;;;;;7.75;5.10;;;;;;;9.00;50.15;97667.84;4924252;28;20197;-80
2023/04/10 01:36:11;;;;;;;7.82;5.45;;;;;;;8.95;50.65;97670.31;4934690;28;20305;-80
2023/04/10 01:38:39;;;;;;;7.72;5.72;;;;;;;8.95;50.29;97674.72;4924365;28;20155;-79
2023/04/10 01:43:39;;;;;;;6.82;5.03;;;;;;;8.87;50.43;97682.81;4984553;22;20116;-79
2023/04/10 01:46:05;;;;;;;7.32;5.00;;;;;;;8.89;51.00;97686.00;4941819;28;20217;-80
2023/04/10 01:48:31;;;;;;;8.52;5.57;;;;;;;8.87;51.32;97680.22;4981652;22;20310;-80
2023/04/10 01:50:57;;;;;;;7.82;5.13;;;;;;;8.96;51.01;97668.50;5124998;22;20281;-79
2023/04/10 01:53:23;;;;;;;7.82;4.75;;;;;;;9.10;50.47;97675.13;4963820;28;20195;-80
2023/04/10 01:58:17;;;;;;;8.88;5.47;;;;;;;9.22;50.15;97676.94;4964363;22;20305;-79
2023/04/10 02:00:43;;;;;;;7.43;5.13;;;;;;;9.30;49.74;97681.81;4906530;28;20179;-80
2023/04/10 02:03:09;;;;;;;7.70;5.10;;;;;;;9.34;49.95;97675.19;4934620;28;20058;-80
2023/04/10 02:05:42;;;;;;;7.38;4.82;;;;;;;9.41;49.89;97672.44;4925524;28;20399;-80
2023/04/10 02:08:33;;;;;;;7.10;4.82;;;;;;;9.36;49.47;97667.94;4924106;28;20328;-80
2023/04/10 02:11:21;;;;;;;6.10;4.40;;;;;;;9.30;50.40;97669.59;4936783;28;20252;-81
2023/04/10 02:13:47;;;;;;;9.38;5.95;;;;;;;9.16;51.04;97676.03;4926582;28;20248;-80
2023/04/10 02:16:16;;;;;;;6.95;5.00;;;;;;;9.07;51.36;97672.97;4927877;28;20276;-80
2023/04/10 02:18:42;;;;;;;7.80;5.45;;;;;;;9.03;51.55;97658.03;4924892;28;20354;-80
2023/04/10 02:21:08;;;;;;;7.60;5.15;;;;;;;8.97;51.65;97668.28;4923966;28;20301;-80
2023/04/10 02:23:34;;;;;;;7.53;4.78;;;;;;;9.04;51.47;97670.00;4942712;28;20273;-80
2023/04/10 02:26:05;;;;;;;7.05;4.47;;;;;;;9.04;51.39;97660.41;4941391;28;20162;-80
2023/04/10 02:28:31;;;;;;;8.52;5.75;;;;;;;8.94;50.83;97654.97;4924314;28;20189;-80
2023/04/10 02:30:56;;;;;;;6.80;4.95;;;;;;;8.81;51.41;97661.91;4971182;22;20228;-81
2023/04/10 02:33:21;;;;;;;7.38;5.07;;;;;;;8.90;51.20;97653.81;4939528;28;20299;-80
2023/04/10 02:35:47;;;;;;;6.07;4.43;;;;;;;8.79;51.74;97644.97;4915321;28;20466;-80
2023/04/10 02:38:12;;;;;;;7.53;4.50;;;;;;;8.80;52.36;97644.75;4911456;28;20208;-80
2023/04/10 02:40:38;;;;;;;8.23;4.82;;;;;;;8.79;52.54;97645.78;4926725;28;20300;-80
2023/04/10 02:43:03;;;;;;;9.23;5.35;;;;;;;8.73;52.34;97640.66;4928150;28;20173;-80
2023/04/10 02:45:29;;;;;;;7.45;4.50;;;;;;;8.76;52.49;97638.44;4891749;28;20555;-80
2023/04/10 02:47:54;;;;;;;7.63;4.95;;;;;;;8.86;51.88;97626.69;4924388;28;20315;-80
2023/04/10 02:50:19;;;;;;;7.18;4.68;;;;;;;8.92;50.99;97626.59;4909786;28;20178;-80
2023/04/10 02:52:45;;;;;;;7.68;5.10;;;;;;;9.07;51.10;97631.41;4894776;28;20279;-80
2023/04/10 02:55:10;;;;;;;6.75;4.80;;;;;;;9.11;50.68;97627.31;4926774;28;20665;-80
2023/04/10 02:57:36;;;;;;;6.53;4.50;;;;;;;9.19;50.69;97626.22;4927100;28;20439;-80
2023/04/10 03:00:03;;;;;;;7.95;5.22;;;;;;;9.11;50.81;97614.34;4895008;28;20196;-80
2023/04/10 03:02:29;;;;;;;7.05;4.68;;;;;;;9.09;51.23;97618.97;4896193;28;20359;-80
2023/04/10 03:04:55;;;;;;;8.93;5.60;;;;;;;9.05;52.12;97620.44;4903367;28;20350;-80
2023/04/10 03:07:20;;;;;;;7.15;4.70;;;;;;;8.95;51.86;97609.81;4906218;28;20256;-80
2023/04/10 03:09:46;;;;;;;7.32;5.00;;;;;;;8.93;51.70;97606.66;4909709;28;20397;-80
2023/04/10 03:12:11;;;;;;;8.18;4.85;;;;;;;8.99;51.52;97608.34;4911852;28;20208;-80
2023/04/10 03:14:36;;;;;;;6.97;4.90;;;;;;;8.98;50.91;97604.97;4889542;28;20336;-80
2023/04/10 03:17:02;;;;;;;7.72;5.15;;;;;;;9.02;50.82;97607.91;4909351;28;20208;-80
2023/04/10 03:19:27;;;;;;;6.90;4.32;;;;;;;9.10;50.95;97607.56;4910205;28;20208;-80
2023/04/10 03:21:55;;;;;;;7.10;5.30;;;;;;;9.03;51.35;97606.91;4895502;28;20138;-79
2023/04/10 03:24:21;;;;;;;7.90;5.18;;;;;;;9.02;50.46;97597.50;4940305;28;20212;-79
2023/04/10 03:26:46;;;;;;;8.77;5.07;;;;;;;9.02;50.01;97605.28;4929095;28;20241;-80
2023/04/10 03:29:17;;;;;;;6.82;4.90;;;;;;;9.02;50.23;97607.91;4924187;28;20243;-80
2023/04/10 03:31:42;;;;;;;6.75;4.57;;;;;;;9.09;49.93;97605.97;4925158;28;20279;-80
2023/04/10 03:34:08;;;;;;;6.80;4.72;;;;;;;8.95;50.37;97600.19;4896789;28;20018;-79
2023/04/10 03:36:33;;;;;;;7.80;4.75;;;;;;;8.96;51.35;97609.59;4936618;28;20038;-80
2023/04/10 03:38:59;;;;;;;6.80;4.82;;;;;;;8.98;50.41;97609.38;4918232;28;20392;-80
2023/04/10 03:41:24;;;;;;;6.60;4.38;;;;;;;8.99;50.34;97590.16;4933470;28;20065;-79
2023/04/10 03:43:49;;;;;;;6.65;4.65;;;;;;;8.99;50.35;97597.94;4917903;28;20022;-80
2023/04/10 03:46:15;;;;;;;7.35;5.00;;;;;;;8.93;50.04;97591.06;4918411;28;20084;-80
2023/04/10 03:48:41;;;;;;;7.65;4.90;;;;;;;8.94;50.13;97605.63;4902355;28;20033;-80
2023/04/10 03:51:06;;;;;;;7.43;4.90;;;;;;;8.99;50.10;97598.72;4914898;28;20708;-79
2023/04/10 03:53:35;;;;;;;6.70;5.00;;;;;;;8.92;50.15;97602.47;4903703;28;20026;-80
2023/04/10 03:56:01;;;;;;;8.05;4.82;;;;;;;8.95;50.61;97605.41;4911375;28;20033;-80
2023/04/10 03:58:27;;;;;;;7.22;5.00;;;;;;;8.79;50.79;97604.25;4897803;28;20034;-80
2023/04/10 04:00:53;;;;;;;7.35;5.05;;;;;;;8.72;50.83;97593.16;4930211;28;20080;-80
2023/04/10 04:03:18;;;;;;;6.63;4.68;;;;;;;8.78;50.61;97605.25;4925880;28;20095;-80
2023/04/10 04:05:44;;;;;;;6.40;4.55;;;;;;;8.84;50.78;97608.75;4917225;28;20073;-79
2023/04/10 04:08:09;;;;;;;7.32;5.13;;;;;;;8.83;50.67;97601.19;4915150;28;20041;-79
2023/04/10 04:10:34;;;;;;;7.50;4.90;;;;;;;8.90;50.03;97594.09;4901631;28;20030;-80
2023/04/10 04:13:00;;;;;;;7.20;5.00;;;;;;;8.88;50.37;97601.31;4935702;28;20104;-80
2023/04/10 04:15:25;;;;;;;8.43;5.55;;;;;;;8.86;50.37;97605.94;4938049;28;20233;-80
2023/04/10 04:17:51;;;;;;;8.45;5.75;;;;;;;8.80;50.69;97610.22;4936431;28;20025;-79
2023/04/10 04:20:16;;;;;;;8.85;5.20;;;;;;;8.75;51.38;97597.88;4951125;28;20408;-80
2023/04/10 04:22:41;;;;;;;6.93;4.55;;;;;;;8.85;50.89;97606.97;4946858;28;20383;-79
2023/04/10 04:25:10;;;;;;;8.07;5.53;;;;;;;8.76;51.13;97594.28;4931919;28;20352;-80
2023/04/10 04:27:36;;;;;;;7.53;4.85;;;;;;;8.78;50.70;97600.03;4934993;28;20042;-81
2023/04/10 04:30:02;;;;;;;7.15;5.00;;;;;;;8.78;50.59;97605.25;4939104;28;20044;-81
2023/04/10 04:32:27;;;;;;;7.05;4.70;;;;;;;8.78;50.58;97605.25;4950949;28;20034;-81
2023/04/10 04:34:52;;;;;;;8.20;5.07;;;;;;;8.81;50.58;97601.41;4914273;28;20031;-79
2023/04/10 04:37:18;;;;;;;7.57;5.15;;;;;;;8.79;50.43;97598.22;4948901;28;20372;-81
2023/04/10 04:39:43;;;;;;;7.15;5.13;;;;;;;8.85;50.43;97604.38;4921473;28;20077;-80
2023/04/10 04:42:09;;;;;;;7.97;5.00;;;;;;;8.86;50.53;97611.13;4953729;28;20398;-79
2023/04/10 04:44:34;;;;;;;7.07;5.05;;;;;;;8.88;50.80;97609.91;4950479;28;20040;-79
2023/04/10 04:46:59;;;;;;;8.27;4.82;;;;;;;8.91;50.38;97609.47;4942507;28;20046;-80
2023/04/10 04:49:25;;;;;;;6.63;4.43;;;;;;;8.96;50.07;97611.38;4916241;28;20030;-80
2023/04/10 04:51:51;;;;;;;6.47;4.45;;;;;;;9.02;49.75;97613.09;4950071;28;20729;-80
2023/04/10 04:54:16;;;;;;;7.40;5.00;;;;;;;9.03;49.67;97608.69;4918638;28;20030;-81
2023/04/10 04:56:42;;;;;;;8.05;4.57;;;;;;;9.03;49.87;97596.50;4935142;28;20344;-80
2023/04/10 04:59:07;;;;;;;7.93;4.80;;;;;;;9.13;49.17;97603.72;5031488;22;20038;-79
2023/04/10 05:01:33;;;;;;;7.05;4.80;;;;;;;9.16;48.90;97601.47;4949721;28;20253;-79
2023/04/10 05:03:58;;;;;;;7.43;4.97;;;;;;;9.18;48.94;97598.66;4949599;28;20397;-80
2023/04/10 05:06:23;;;;;;;7.40;4.75;;;;;;;9.18;49.10;97583.06;4941622;28;20189;-80
2023/04/10 05:08:49;;;;;;;6.95;4.55;;;;;;;9.14;49.23;97587.91;4959456;28;20219;-80
2023/04/10 05:11:14;;;;;;;6.80;4.60;;;;;;;9.08;49.10;97578.44;4965479;28;20071;-80
2023/04/10 05:13:40;;;;;;;6.28;4.50;;;;;;;9.16;48.56;97585.09;5074333;22;20160;-79
2023/04/10 05:21:15;;;;;;;5.82;4.20;;;;;;;9.25;48.09;97588.16;4976611;22;20212;-80
2023/04/10 05:23:41;;;;;;;5.15;3.80;;;;;;;9.25;48.37;97593.34;5227972;22;20218;-80
2023/04/10 05:26:06;;;;;;;6.25;4.50;;;;;;;9.25;47.91;97586.34;4931606;28;20264;-80
2023/04/10 05:28:32;;;;;;;6.88;4.50;;;;;;;9.28;48.48;97590.31;4945951;28;20605;-79
2023/04/10 05:30:57;;;;;;;4.70;3.63;;;;;;;9.29;47.96;97584.88;5013580;23;20150;-80
2023/04/10 05:33:23;;;;;;;5.45;3.90;;;;;;;9.31;47.93;97592.47;4988552;28;20328;-81
2023/04/10 05:35:48;;;;;;;6.88;4.00;;;;;;;9.39;47.95;97581.75;5052218;22;20281;-80
2023/04/10 05:38:13;;;;;;;5.90;3.55;;;;;;;9.55;47.42;97588.06;5292303;22;20527;-80
2023/04/10 05:40:39;;;;;;;6.40;3.97;;;;;;;9.57;46.86;97592.00;4951042;28;20573;-80
2023/04/10 05:50:43;;;;;;;6.85;4.15;;;;;;;9.75;46.23;97592.91;4945323;28;20266;-81
2023/04/10 05:53:12;;;;;;;5.45;3.60;;;;;;;9.89;45.81;97591.63;4933586;28;20296;-79
2023/04/10 05:55:38;;;;;;;5.78;4.22;;;;;;;10.05;46.05;97594.53;4947918;28;20220;-80
2023/04/10 05:58:03;;;;;;;5.40;3.78;;;;;;;10.08;45.52;97602.66;4926560;28;20077;-79
2023/04/10 06:00:29;;;;;;;5.25;3.67;;;;;;;10.18;45.39;97594.28;4930465;28;20204;-80
2023/04/10 06:02:55;;;;;;;6.40;3.80;;;;;;;10.37;45.74;97600.13;4963408;23;20251;-79
2023/04/10 06:05:21;;;;;;;5.22;3.95;;;;;;;10.45;45.86;97597.16;5002711;22;20374;-80
2023/04/10 06:07:46;;;;;;;5.53;3.83;;;;;;;10.61;45.36;97598.22;4923256;28;20201;-80
2023/04/10 06:10:11;;;;;;;5.15;3.58;;;;;;;10.90;45.21;97595.59;4926965;28;20037;-80
2023/04/10 06:12:37;;;;;;;5.15;3.80;;;;;;;11.10;44.22;97592.50;4922492;28;20204;-80
2023/04/10 06:15:02;;;;;;;5.10;3.70;;;;;;;11.18;42.64;97599.91;4940705;28;20210;-80
2023/04/10 06:17:28;;;;;;;6.93;4.35;;;;;;;11.47;42.38;97602.44;4926481;28;20579;-79
2023/04/10 06:19:55;;;;;;;4.80;3.47;;;;;;;11.78;43.38;97600.25;4911117;28;20190;-82
2023/04/10 06:22:21;;;;;;;5.53;3.75;;;;;;;12.02;42.44;97592.22;4908385;28;20132;-79
2023/04/10 06:24:46;;;;;;;4.72;3.60;;;;;;;12.16;40.68;97594.19;4925553;28;20341;-81
2023/04/10 06:27:12;;;;;;;4.32;3.47;;;;;;;12.29;40.23;97589.66;4929762;28;20268;-81
2023/04/10 06:29:37;;;;;;;4.45;3.53;;;;;;;12.51;39.81;97587.81;4910977;28;20271;-79
2023/04/10 06:32:03;;;;;;;5.10;3.55;;;;;;;12.84;40.70;97585.22;4941760;28;20146;-80
2023/04/10 06:34:28;;;;;;;4.68;3.38;;;;;;;13.02;41.07;97584.06;4941443;28;20199;-81
2023/04/10 06:36:53;;;;;;;5.53;3.83;;;;;;;12.95;39.44;97588.72;4942920;28;20248;-79
2023/04/10 06:39:19;;;;;;;4.47;3.33;;;;;;;13.07;39.96;97586.72;4939718;28;20184;-80
2023/04/10 06:41:44;;;;;;;4.93;3.67;;;;;;;12.91;38.45;97573.50;4921678;28;20308;-81
2023/04/10 06:44:09;;;;;;;4.63;3.42;;;;;;;12.96;37.94;97583.22;4921369;28;20145;-81
2023/04/10 06:46:35;;;;;;;4.68;3.30;;;;;;;13.33;38.82;97585.09;4908474;28;20285;-80
2023/04/10 06:49:00;;;;;;;3.78;2.95;;;;;;;13.41;37.77;97578.59;4914292;28;20401;-79
2023/04/10 06:51:26;;;;;;;3.65;3.00;;;;;;;13.63;37.43;97588.94;4885209;28;20213;-79
2023/04/10 06:53:51;;;;;;;3.88;2.88;;;;;;;13.87;37.97;97591.94;4894914;28;20200;-80
2023/04/10 06:56:17;;;;;;;3.47;3.03;;;;;;;13.75;36.88;97589.53;4911782;28;20356;-80
2023/04/10 06:58:42;;;;;;;3.95;3.10;;;;;;;13.90;37.74;97583.59;4911282;28;20343;-80
2023/04/10 07:01:07;;;;;;;3.35;2.92;;;;;;;14.09;36.18;97583.13;4927414;28;20192;-81
2023/04/10 07:03:33;;;;;;;3.67;3.20;;;;;;;14.01;36.10;97587.03;4931626;28;20455;-80
2023/04/10 07:05:59;;;;;;;4.25;3.58;;;;;;;14.19;36.11;97583.16;5046512;22;20299;-80
2023/04/10 07:08:24;;;;;;;4.13;3.00;;;;;;;14.48;35.92;97578.25;4922946;28;20193;-80
2023/04/10 07:10:50;;;;;;;3.25;2.75;;;;;;;14.69;37.20;97584.34;4941596;28;20042;-80
2023/04/10 07:13:15;;;;;;;3.58;2.88;;;;;;;14.85;35.92;97586.97;4937434;28;20192;-79
2023/04/10 07:15:41;;;;;;;3.45;2.88;;;;;;;15.03;35.52;97580.41;4942498;28;20331;-80
2023/04/10 07:18:06;;;;;;;3.95;3.13;;;;;;;15.13;34.94;97580.41;4900602;28;20205;-79
2023/04/10 07:20:31;;;;;;;4.05;3.22;;;;;;;15.24;34.65;97573.34;4909017;28;20297;-81
2023/04/10 07:22:57;;;;;;;3.97;3.42;;;;;;;15.36;34.10;97568.59;4929557;28;20204;-80
2023/04/10 07:25:22;;;;;;;3.67;3.10;;;;;;;15.49;34.83;97569.88;4908759;28;20391;-81
2023/04/10 07:27:48;;;;;;;3.72;3.20;;;;;;;15.70;34.87;97560.13;4925678;28;20275;-80
2023/04/10 07:30:15;;;;;;;2.88;2.63;;;;;;;16.04;34.37;97560.28;4927655;28;20145;-79
2023/04/10 07:32:40;;;;;;;3.80;3.08;;;;;;;15.84;34.50;97560.38;4925608;28;20205;-79
2023/04/10 07:35:06;;;;;;;4.25;3.20;;;;;;;16.17;33.55;97563.38;4916061;28;20255;-79
2023/04/10 07:37:32;;;;;;;3.42;3.10;;;;;;;16.39;34.54;97561.13;4927247;28;20276;-80
2023/04/10 07:39:57;;;;;;;3.50;3.17;;;;;;;16.77;34.88;97576.41;4911215;28;20295;-78
2023/04/10 07:42:23;;;;;;;4.10;3.03;;;;;;;17.15;31.82;97574.81;4891042;28;20386;-79
2023/04/10 07:44:48;;;;;;;3.30;2.70;;;;;;;17.13;32.37;97570.88;4904760;28;20313;-79
2023/04/10 07:47:13;;;;;;;3.40;2.95;;;;;;;17.32;32.89;97571.75;4902639;28;20176;-80
2023/04/10 07:49:40;;;;;;;3.35;3.05;;;;;;;17.60;32.41;97583.31;4926819;28;20407;-79
2023/04/10 07:52:05;;;;;;;3.10;2.78;;;;;;;17.53;31.55;97572.34;4926214;28;20323;-79
2023/04/10 07:54:32;;;;;;;3.28;2.78;;;;;;;17.63;31.43;97565.38;4908137;28;20162;-79
2023/04/10 07:56:58;;;;;;;3.55;3.05;;;;;;;17.73;32.49;97571.31;4925878;28;20373;-80
2023/04/10 07:59:23;;;;;;;3.40;2.97;;;;;;;17.84;29.82;97571.19;4890704;28;20280;-80
2023/04/10 08:01:49;;;;;;;2.80;2.60;;;;;;;17.77;29.43;97564.44;4895492;28;20206;-79
2023/04/10 08:04:14;;;;;;;2.80;2.60;;;;;;;18.10;31.07;97559.31;4904678;28;20236;-80
2023/04/10 08:06:40;;;;;;;3.03;2.40;;;;;;;18.38;30.58;97559.47;4920832;28;20276;-79
2023/04/10 08:09:05;;;;;;;2.92;2.65;;;;;;;18.09;29.69;97557.75;4910396;28;20465;-79
2023/04/10 08:11:35;;;;;;;2.67;2.45;;;;;;;18.67;30.00;97558.53;4893375;28;20022;-80
2023/04/10 08:14:02;;;;;;;2.45;2.25;;;;;;;18.61;29.53;97549.94;4909715;28;20325;-79
2023/04/10 08:16:29;;;;;;;3.13;2.35;;;;;;;18.82;28.65;97557.53;4908667;28;20190;-79
2023/04/10 08:18:56;;;;;;;2.28;2.00;;;;;;;18.74;28.52;97566.09;4905619;28;20193;-79
2023/04/10 08:21:22;;;;;;;2.35;2.10;;;;;;;18.77;28.42;97549.69;4886720;28;20268;-80
2023/04/10 08:23:56;;;;;;;1.90;1.75;;;;;;;19.05;28.01;97563.75;4906736;28;20030;-78
2023/04/10 08:26:22;;;;;;;2.20;1.83;;;;;;;19.27;26.53;97552.56;4921758;28;20358;-79
2023/04/10 08:28:49;;;;;;;2.08;1.83;;;;;;;19.35;26.35;97549.25;4925990;28;20174;-80
2023/04/10 08:31:16;;;;;;;2.33;2.13;;;;;;;19.68;29.12;97553.66;4894232;28;20329;-79
2023/04/10 08:33:41;;;;;;;1.80;1.70;;;;;;;19.99;27.30;97546.72;4892411;28;20170;-79
2023/04/10 08:36:11;;;;;;;2.55;1.90;;;;;;;20.05;27.45;97551.88;4893784;28;20205;-79
2023/04/10 08:38:40;;;;;;;1.73;1.63;;;;;;;19.91;24.71;97551.91;4922190;28;20409;-79
2023/04/10 08:41:05;;;;;;;2.22;2.08;;;;;;;20.17;27.13;97541.59;4901428;28;20205;-80
2023/04/10 08:43:33;;;;;;;2.45;1.80;;;;;;;20.37;26.23;97549.09;4899883;28;20184;-78
2023/04/10 08:46:00;;;;;;;1.85;1.60;;;;;;;20.71;25.75;97544.38;4908302;28;20267;-78
2023/04/10 08:48:30;;;;;;;2.13;1.67;;;;;;;20.52;26.13;97547.16;4885754;28;20359;-79
2023/04/10 08:50:59;;;;;;;1.60;1.50;;;;;;;20.42;26.17;97542.09;4906026;28;20345;-80
2023/04/10 08:53:27;;;;;;;2.40;1.77;;;;;;;20.42;25.42;97539.47;4893510;28;20188;-80
2023/04/10 08:55:52;;;;;;;2.17;1.98;;;;;;;20.25;26.06;97522.38;4904195;28;20285;-79
2023/04/10 08:58:18;;;;;;;2.20;1.98;;;;;;;19.92;25.09;97535.75;4919752;28;20441;-78
2023/04/10 09:00:44;;;;;;;1.92;1.83;;;;;;;20.27;24.78;97530.81;4909424;28;20453;-80
2023/04/10 09:03:13;;;;;;;1.70;1.60;;;;;;;20.45;25.24;97536.22;4919551;28;20195;-80
2023/04/10 09:05:39;;;;;;;2.28;2.08;;;;;;;20.26;24.97;97529.22;4920692;28;20635;-79
2023/04/10 09:08:06;;;;;;;1.92;1.73;;;;;;;20.38;24.37;97521.53;4910104;28;20189;-80
2023/04/10 09:10:31;;;;;;;2.05;1.85;;;;;;;20.84;24.09;97522.34;4907831;28;20290;-79
2023/04/10 09:12:57;;;;;;;2.08;1.88;;;;;;;20.84;24.68;97513.66;4908775;28;20371;-79
2023/04/10 09:15:22;;;;;;;1.70;1.60;;;;;;;20.68;25.11;97524.59;4929528;28;20300;-79
2023/04/10 09:17:59;;;;;;;1.80;1.70;;;;;;;20.77;25.48;97508.78;4911277;28;20205;-79
2023/04/10 09:20:27;;;;;;;2.75;1.85;;;;;;;21.06;26.23;97518.91;4921038;28;20299;-80
2023/04/10 09:22:52;;;;;;;1.75;1.65;;;;;;;21.19;24.25;97516.47;4903718;28;20194;-79
2023/04/10 09:25:40;;;;;;;1.63;1.52;;;;;;;21.17;25.01;97513.34;4922318;28;20241;-79
2023/04/10 09:28:07;;;;;;;1.65;1.55;;;;;;;20.97;23.24;97510.13;4906341;28;20308;-79
2023/04/10 09:30:34;;;;;;;1.75;1.65;;;;;;;21.13;24.88;97502.59;4918619;28;20409;-79
2023/04/10 09:33:00;;;;;;;1.98;1.77;;;;;;;21.11;25.89;97497.59;4924941;28;20196;-79
2023/04/10 09:35:35;;;;;;;1.88;1.60;;;;;;;21.53;24.10;97491.22;4909201;28;20197;-78
2023/04/10 09:38:01;;;;;;;2.17;2.00;;;;;;;21.56;23.61;97488.72;4918398;28;20439;-79
2023/04/10 09:40:26;;;;;;;1.70;1.60;;;;;;;21.78;24.11;97487.03;4894463;28;20485;-79
2023/04/10 09:42:54;;;;;;;2.00;1.70;;;;;;;22.05;23.35;97480.69;4895192;28;20192;-78
2023/04/10 09:45:21;;;;;;;1.88;1.77;;;;;;;21.88;23.67;97484.09;4921558;28;20361;-80
2023/04/10 09:48:06;;;;;;;1.80;1.70;;;;;;;22.29;23.94;97487.41;4937043;28;20367;-79
2023/04/10 09:50:36;;;;;;;1.50;1.40;;;;;;;22.38;22.60;97485.53;4919692;28;20432;-79
2023/04/10 09:53:02;;;;;;;1.58;1.42;;;;;;;22.38;23.62;97481.03;4901293;28;20340;-79
2023/04/10 09:55:28;;;;;;;2.00;1.60;;;;;;;22.33;22.17;97475.88;4912741;28;20333;-79
2023/04/10 09:57:53;;;;;;;1.58;1.48;;;;;;;22.17;22.62;97472.88;4905678;28;20180;-78
2023/04/10 10:00:19;;;;;;;2.05;1.60;;;;;;;22.57;24.48;97470.06;5044246;22;20166;-79
2023/04/10 10:02:44;;;;;;;1.70;1.60;;;;;;;22.83;23.30;97471.88;4928535;28;20193;-78
2023/04/10 10:05:10;;;;;;;1.70;1.60;;;;;;;22.94;22.62;97475.72;4987529;23;20220;-79
2023/04/10 10:07:37;;;;;;;1.50;1.40;;;;;;;22.68;21.98;97457.22;4912701;28;20685;-78
2023/04/10 10:10:02;;;;;;;1.73;1.58;;;;;;;22.17;20.95;97448.22;4930532;28;20378;-77
2023/04/10 10:12:45;;;;;;;2.30;1.90;;;;;;;22.59;25.21;97462.56;4913002;28;20213;-78
2023/04/10 10:15:13;;;;;;;2.20;2.00;;;;;;;22.34;23.34;97458.06;4913814;28;20275;-78
2023/04/10 10:17:44;;;;;;;2.33;2.13;;;;;;;22.07;24.18;97455.41;4929512;28;20396;-79
2023/04/10 10:20:10;;;;;;;2.33;1.98;;;;;;;22.36;23.65;97462.00;4934640;28;20169;-77
2023/04/10 10:22:36;;;;;;;2.00;1.90;;;;;;;22.36;22.86;97455.88;4915849;28;20180;-78
2023/04/10 10:25:02;;;;;;;2.05;1.90;;;;;;;22.00;22.31;97454.31;4947519;28;20353;-77
2023/04/10 10:27:33;;;;;;;2.10;2.00;;;;;;;21.77;22.75;97457.13;4924142;28;20376;-79
2023/04/10 10:30:02;;;;;;;2.33;1.80;;;;;;;21.59;24.68;97451.03;4932645;28;20372;-77
2023/04/10 10:32:28;;;;;;;2.13;2.03;;;;;;;21.85;24.56;97456.34;4934663;28;20450;-78
2023/04/10 10:34:55;;;;;;;1.92;1.83;;;;;;;21.62;23.60;97453.03;4926795;28;20192;-79
2023/04/10 10:37:20;;;;;;;2.40;2.20;;;;;;;21.84;24.33;97454.78;4937610;28;20186;-79
2023/04/10 10:39:58;;;;;;;2.42;2.22;;;;;;;22.11;26.59;97455.56;4902552;28;20224;-79
2023/04/10 10:42:33;;;;;;;1.90;1.80;;;;;;;22.03;23.39;97446.50;5057519;22;20222;-78
2023/04/10 10:45:07;;;;;;;2.45;2.25;;;;;;;22.54;23.48;97444.16;4932124;28;20348;-80
2023/04/10 10:47:33;;;;;;;1.90;1.70;;;;;;;22.52;24.96;97438.38;5161726;22;20338;-79
2023/04/10 10:50:00;;;;;;;1.92;1.80;;;;;;;22.79;22.35;97431.13;4887669;28;20393;-77
2023/04/10 10:52:35;;;;;;;1.85;1.75;;;;;;;22.37;22.93;97420.31;4901016;28;20259;-79
2023/04/10 10:55:21;;;;;;;1.58;1.48;;;;;;;22.26;23.19;97415.31;4873699;28;20328;-78
2023/04/10 10:57:48;;;;;;;1.80;1.70;;;;;;;22.43;23.13;97419.84;4971253;23;20245;-78
2023/04/10 11:00:15;;;;;;;1.42;1.33;;;;;;;22.57;22.82;97419.66;5077602;22;20219;-78
2023/04/10 11:02:40;;;;;;;1.77;1.67;;;;;;;22.41;21.64;97415.94;4918772;28;20207;-78
2023/04/10 11:05:06;;;;;;;1.40;1.30;;;;;;;22.22;23.49;97419.66;4934386;28;20317;-79
2023/04/10 11:08:03;;;;;;;1.73;1.63;;;;;;;21.92;21.93;97425.94;4912872;28;20284;-77
2023/04/10 11:11:04;;;;;;;1.42;1.33;;;;;;;21.84;22.65;97419.53;4944844;28;20179;-77
2023/04/10 11:13:30;;;;;;;1.45;1.30;;;;;;;21.03;24.41;97418.13;4933459;28;20041;-78
2023/04/10 11:15:57;;;;;;;1.85;1.45;;;;;;;21.13;22.71;97413.31;4947728;28;20366;-78
2023/04/10 11:18:47;;;;;;;1.92;1.80;;;;;;;20.78;21.83;97417.69;4944528;28;20483;-76
2023/04/10 11:21:22;;;;;;;1.50;1.35;;;;;;;21.22;24.60;97409.94;4920564;28;20281;-79
2023/04/10 11:23:49;;;;;;;1.80;1.70;;;;;;;21.32;24.56;97405.13;4913627;28;20297;-78
2023/04/10 11:26:40;;;;;;;1.85;1.67;;;;;;;21.75;25.38;97400.22;4949215;28;20275;-78
2023/04/10 11:29:11;;;;;;;1.48;1.38;;;;;;;21.66;21.86;97392.25;4948255;28;20269;-78
2023/04/10 11:31:37;;;;;;;1.52;1.42;;;;;;;22.06;23.60;97378.84;4947364;28;20394;-79
2023/04/10 11:34:05;;;;;;;1.40;1.30;;;;;;;22.28;22.27;97374.44;4921764;28;20358;-78
2023/04/10 11:36:31;;;;;;;1.83;1.73;;;;;;;22.22;23.49;97379.13;4946688;28;20307;-78
2023/04/10 11:39:07;;;;;;;1.50;1.40;;;;;;;22.77;23.69;97377.56;4945730;28;20694;-79
2023/04/10 11:41:38;;;;;;;1.40;1.30;;;;;;;22.56;21.46;97367.66;4911188;28;20388;-77
2023/04/10 11:44:05;;;;;;;1.20;1.10;;;;;;;22.58;24.48;97357.50;4926044;28;20344;-78
2023/04/10 11:46:35;;;;;;;1.35;1.25;;;;;;;23.01;23.17;97363.72;4930955;28;20169;-77
2023/04/10 11:49:02;;;;;;;1.45;1.35;;;;;;;23.12;22.46;97364.16;4947266;28;20424;-78
2023/04/10 11:51:29;;;;;;;1.25;1.15;;;;;;;23.14;21.25;97359.31;4927082;28;20627;-77
2023/04/10 11:54:07;;;;;;;1.55;1.45;;;;;;;23.25;22.54;97352.50;4942355;28;20264;-77
2023/04/10 11:56:33;;;;;;;2.13;1.40;;;;;;;22.70;23.72;97350.75;4927409;28;20196;-78